createdAt,value
2019-05-22T00:00:39.130Z,57.33
2019-05-22T00:01:44.127Z,57.46
2019-05-22T00:02:47.434Z,57.43
2019-05-22T00:03:57.731Z,57.47
2019-05-22T00:05:09.042Z,57.55
2019-05-22T00:06:12.572Z,57.57
2019-05-22T00:07:15.187Z,57.30
2019-05-22T00:08:18.339Z,57.38
2019-05-22T00:09:28.406Z,57.25
2019-05-22T00:10:32.715Z,57.25
2019-05-22T00:11:35.855Z,57.42
2019-05-22T00:12:46.699Z,57.23
2019-05-22T00:13:45.006Z,57.23
2019-05-22T00:14:47.222Z,57.43
2019-05-22T00:15:51.305Z,57.13
2019-05-22T00:16:54.523Z,57.52
2019-05-22T00:17:58.847Z,57.17
2019-05-22T00:19:02.624Z,57.38
2019-05-22T00:20:06.813Z,57.18
2019-05-22T00:21:09.643Z,57.29
2019-05-22T00:22:17.856Z,57.48
2019-05-22T00:23:21.641Z,57.14
2019-05-22T00:24:25.724Z,57.14
2019-05-22T00:25:33.095Z,57.22
2019-05-22T00:26:35.094Z,57.26
2019-05-22T00:27:38.038Z,57.12
2019-05-22T00:28:41.020Z,57.42
2019-05-22T00:29:44.490Z,57.22
2019-05-22T00:30:48.265Z,57.13
2019-05-22T00:31:50.958Z,57.23
2019-05-22T00:32:53.563Z,57.24
2019-05-22T00:33:57.911Z,57.22
2019-05-22T00:35:00.495Z,57.25
2019-05-22T00:36:03.733Z,57.28
2019-05-22T00:37:08.236Z,56.84
2019-05-22T00:38:11.807Z,57.18
2019-05-22T00:39:14.726Z,57.34
2019-05-22T00:40:18.532Z,57.14
2019-05-22T00:41:23.295Z,57.10
2019-05-22T00:42:27.056Z,57.22
2019-05-22T00:43:38.332Z,56.99
2019-05-22T00:44:42.091Z,56.90
2019-05-22T00:45:46.179Z,57.01
2019-05-22T00:46:49.955Z,57.21
2019-05-22T00:47:52.555Z,57.04
2019-05-22T00:48:54.985Z,57.02
2019-05-22T00:49:58.752Z,57.01
2019-05-22T00:51:16.123Z,56.94
2019-05-22T00:52:35.902Z,57.02
2019-05-22T00:53:47.878Z,56.81
2019-05-22T00:55:07.879Z,56.93
2019-05-22T00:56:30.756Z,56.87
2019-05-22T00:57:54.884Z,56.88
2019-05-22T00:59:02.259Z,57.02
2019-05-22T01:00:27.852Z,56.87
2019-05-22T01:01:38.738Z,56.93
2019-05-22T01:02:42.645Z,56.72
2019-05-22T01:03:46.118Z,56.64
2019-05-22T01:04:52.447Z,56.87
2019-05-22T01:05:54.941Z,56.94
2019-05-22T01:06:58.711Z,57.05
2019-05-22T01:08:02.497Z,56.73
2019-05-22T01:09:06.762Z,56.79
2019-05-22T01:10:10.445Z,56.81
2019-05-22T01:11:14.206Z,56.65
2019-05-22T01:12:17.459Z,56.60
2019-05-22T01:13:21.267Z,56.67
2019-05-22T01:14:23.909Z,56.56
2019-05-22T01:15:27.247Z,56.74
2019-05-22T01:16:29.456Z,56.69
2019-05-22T01:17:33.232Z,56.64
2019-05-22T01:18:35.938Z,56.67
2019-05-22T01:19:40.039Z,56.73
2019-05-22T01:20:42.880Z,56.86
2019-05-22T01:21:46.508Z,56.84
2019-05-22T01:22:51.312Z,56.67
2019-05-22T01:23:55.741Z,56.65
2019-05-22T01:24:59.515Z,56.81
2019-05-22T01:26:03.520Z,56.45
2019-05-22T01:27:07.295Z,56.41
2019-05-22T01:28:10.224Z,56.63
2019-05-22T01:29:12.443Z,56.77
2019-05-22T01:30:22.396Z,56.72
2019-05-22T01:31:34.542Z,56.34
2019-05-22T01:32:45.761Z,56.45
2019-05-22T01:34:05.545Z,56.58
2019-05-22T01:35:09.637Z,56.47
2019-05-22T01:36:20.395Z,56.50
2019-05-22T01:37:24.416Z,56.25
2019-05-22T01:38:26.632Z,56.57
2019-05-22T01:39:51.056Z,56.41
2019-05-22T01:40:57.476Z,56.39
2019-05-22T01:42:02.097Z,56.41
2019-05-22T01:43:05.886Z,56.56
2019-05-22T01:44:09.680Z,56.50
2019-05-22T01:45:16.285Z,56.57
2019-05-22T01:46:20.066Z,56.66
2019-05-22T01:47:22.707Z,56.50
2019-05-22T01:48:26.092Z,56.73
2019-05-22T01:49:28.308Z,56.88
2019-05-22T01:50:31.791Z,56.88
2019-05-22T01:51:33.999Z,56.81
2019-05-22T01:52:38.717Z,56.85
2019-05-22T01:53:42.240Z,56.96
2019-05-22T01:54:45.624Z,57.02
2019-05-22T01:55:48.242Z,57.06
2019-05-22T01:56:51.908Z,57.05
2019-05-22T01:57:54.133Z,57.09
2019-05-22T01:58:58.621Z,57.12
2019-05-22T02:00:00.843Z,57.14
2019-05-22T02:01:06.807Z,57.15
2019-05-22T02:02:11.756Z,57.14
2019-05-22T02:03:15.168Z,57.18
2019-05-22T02:04:17.387Z,57.16
2019-05-22T02:05:21.283Z,57.19
2019-05-22T02:06:23.813Z,57.20
2019-05-22T02:07:26.702Z,57.21
2019-05-22T02:08:30.501Z,57.21
2019-05-22T02:09:34.193Z,57.23
2019-05-22T02:10:36.987Z,57.26
2019-05-22T02:11:39.774Z,57.28
2019-05-22T02:12:41.991Z,57.28
2019-05-22T02:13:44.935Z,57.28
2019-05-22T02:14:48.351Z,57.29
2019-05-22T02:15:50.912Z,57.31
2019-05-22T02:16:56.872Z,57.32
2019-05-22T02:17:58.602Z,57.33
2019-05-22T02:19:02.497Z,57.36
2019-05-22T02:20:07.129Z,57.31
2019-05-22T02:21:10.793Z,57.32
2019-05-22T02:22:15.583Z,57.33
2019-05-22T02:23:17.819Z,57.34
2019-05-22T02:24:20.426Z,57.32
2019-05-22T02:25:24.123Z,57.36
2019-05-22T02:26:26.706Z,57.37
2019-05-22T02:27:30.115Z,57.37
2019-05-22T02:28:33.122Z,57.34
2019-05-22T02:29:35.941Z,57.33
2019-05-22T02:30:40.635Z,57.36
2019-05-22T02:31:43.780Z,57.37
2019-05-22T02:32:48.816Z,57.34
2019-05-22T02:34:01.514Z,57.36
2019-05-22T02:35:05.273Z,57.37
2019-05-22T02:36:07.694Z,57.40
2019-05-22T02:37:11.782Z,57.37
2019-05-22T02:38:14.317Z,57.36
2019-05-22T02:39:22.056Z,57.38
2019-05-22T02:40:24.491Z,57.38
2019-05-22T02:41:27.071Z,57.41
2019-05-22T02:42:30.973Z,57.38
2019-05-22T02:43:33.947Z,57.41
2019-05-22T02:44:36.688Z,57.42
2019-05-22T02:45:40.304Z,57.41
2019-05-22T02:46:42.514Z,57.41
2019-05-22T02:47:45.810Z,57.39
2019-05-22T02:48:49.039Z,57.39
2019-05-22T02:49:52.127Z,57.39
2019-05-22T02:50:54.989Z,57.38
2019-05-22T02:51:57.562Z,57.42
2019-05-22T02:52:59.764Z,57.41
2019-05-22T02:54:03.155Z,57.39
2019-05-22T02:55:05.669Z,57.43
2019-05-22T02:56:08.276Z,57.41
2019-05-22T02:57:11.940Z,57.41
2019-05-22T02:58:15.545Z,57.40
2019-05-22T02:59:18.065Z,57.40
2019-05-22T03:00:21.902Z,57.42
2019-05-22T03:01:24.223Z,57.46
2019-05-22T03:02:27.113Z,57.41
2019-05-22T03:03:30.662Z,57.40
2019-05-22T03:04:34.017Z,57.45
2019-05-22T03:05:36.237Z,57.41
2019-05-22T03:06:38.868Z,57.41
2019-05-22T03:07:41.291Z,57.43
2019-05-22T03:08:44.667Z,57.42
2019-05-22T03:09:46.881Z,57.44
2019-05-22T03:10:50.477Z,57.44
2019-05-22T03:11:52.697Z,57.44
2019-05-22T03:12:55.374Z,57.49
2019-05-22T03:13:59.787Z,57.47
2019-05-22T03:15:02.871Z,57.46
2019-05-22T03:16:05.989Z,57.46
2019-05-22T03:17:10.067Z,57.45
2019-05-22T03:18:13.825Z,57.41
2019-05-22T03:19:17.611Z,57.38
2019-05-22T03:20:21.392Z,57.40
2019-05-22T03:21:23.982Z,57.38
2019-05-22T03:22:36.923Z,57.43
2019-05-22T03:23:39.897Z,57.39
2019-05-22T03:24:42.115Z,57.40
2019-05-22T03:25:45.091Z,57.43
2019-05-22T03:26:47.827Z,57.42
2019-05-22T03:27:50.637Z,57.40
2019-05-22T03:28:53.280Z,57.39
2019-05-22T03:29:56.855Z,57.38
2019-05-22T03:30:59.467Z,57.43
2019-05-22T03:32:02.751Z,57.51
2019-05-22T03:33:05.965Z,57.41
2019-05-22T03:34:09.926Z,57.42
2019-05-22T03:35:13.040Z,57.35
2019-05-22T03:36:21.571Z,57.41
2019-05-22T03:37:25.107Z,57.49
2019-05-22T03:38:27.997Z,57.47
2019-05-22T03:39:30.223Z,57.48
2019-05-22T03:40:33.324Z,57.44
2019-05-22T03:41:35.808Z,57.39
2019-05-22T03:42:38.379Z,57.43
2019-05-22T03:43:41.200Z,57.41
2019-05-22T03:44:44.202Z,57.37
2019-05-22T03:45:46.413Z,57.43
2019-05-22T03:46:48.998Z,57.37
2019-05-22T03:47:51.191Z,57.37
2019-05-22T03:48:53.772Z,57.39
2019-05-22T03:49:56.802Z,57.36
2019-05-22T03:51:00.190Z,57.38
2019-05-22T03:52:07.888Z,57.37
2019-05-22T03:53:10.556Z,57.43
2019-05-22T03:54:12.780Z,57.43
2019-05-22T03:55:15.368Z,57.36
2019-05-22T03:56:17.569Z,57.40
2019-05-22T03:57:21.857Z,57.36
2019-05-22T03:58:24.745Z,57.49
2019-05-22T03:59:28.251Z,57.39
2019-05-22T04:00:30.854Z,57.49
2019-05-22T04:01:33.904Z,57.32
2019-05-22T04:02:36.405Z,57.36
2019-05-22T04:03:38.985Z,57.46
2019-05-22T04:04:42.108Z,57.45
2019-05-22T04:05:44.705Z,57.40
2019-05-22T04:06:48.299Z,57.32
2019-05-22T04:07:50.902Z,57.34
2019-05-22T04:08:54.118Z,57.34
2019-05-22T04:09:58.025Z,57.44
2019-05-22T04:11:02.010Z,57.35
2019-05-22T04:12:05.838Z,57.33
2019-05-22T04:13:08.036Z,57.31
2019-05-22T04:14:10.646Z,57.27
2019-05-22T04:15:13.497Z,57.29
2019-05-22T04:16:18.376Z,57.34
2019-05-22T04:17:21.290Z,57.34
2019-05-22T04:18:24.985Z,57.33
2019-05-22T04:19:27.238Z,57.37
2019-05-22T04:20:29.824Z,57.30
2019-05-22T04:21:32.327Z,57.29
2019-05-22T04:22:34.906Z,57.35
2019-05-22T04:23:37.117Z,57.28
2019-05-22T04:24:41.305Z,57.29
2019-05-22T04:25:43.526Z,57.34
2019-05-22T04:26:46.609Z,57.29
2019-05-22T04:27:48.869Z,57.36
2019-05-22T04:28:53.321Z,57.24
2019-05-22T04:29:55.850Z,57.36
2019-05-22T04:30:59.915Z,57.37
2019-05-22T04:32:13.796Z,57.31
2019-05-22T04:33:16.487Z,57.30
2019-05-22T04:34:19.940Z,57.24
2019-05-22T04:35:24.303Z,57.30
2019-05-22T04:36:27.212Z,57.31
2019-05-22T04:37:31.281Z,57.19
2019-05-22T04:38:34.407Z,57.26
2019-05-22T04:39:37.192Z,57.35
2019-05-22T04:40:39.404Z,57.28
2019-05-22T04:41:42.006Z,57.26
2019-05-22T04:42:44.259Z,57.32
2019-05-22T04:43:46.847Z,57.28
2019-05-22T04:44:49.478Z,57.35
2019-05-22T04:45:52.069Z,57.29
2019-05-22T04:46:54.787Z,57.31
2019-05-22T04:47:57.376Z,57.28
2019-05-22T04:48:59.591Z,57.32
2019-05-22T04:50:07.705Z,57.23
2019-05-22T04:51:06.663Z,57.33
2019-05-22T04:52:10.547Z,57.26
2019-05-22T04:53:12.752Z,57.28
2019-05-22T04:54:15.322Z,57.29
2019-05-22T04:55:17.956Z,57.25
2019-05-22T04:56:20.535Z,57.23
2019-05-22T04:57:22.776Z,57.30
2019-05-22T04:58:30.920Z,57.19
2019-05-22T04:59:33.323Z,57.22
2019-05-22T05:00:37.369Z,57.33
2019-05-22T05:01:40.074Z,57.17
2019-05-22T05:02:42.668Z,57.18
2019-05-22T05:03:45.063Z,57.18
2019-05-22T05:04:47.664Z,57.15
2019-05-22T05:05:52.091Z,57.29
2019-05-22T05:06:55.129Z,57.21
2019-05-22T05:07:57.332Z,57.26
2019-05-22T05:08:59.911Z,57.31
2019-05-22T05:10:02.640Z,57.21
2019-05-22T05:11:05.230Z,57.15
2019-05-22T05:12:07.536Z,57.06
2019-05-22T05:13:10.118Z,57.14
2019-05-22T05:14:12.380Z,57.08
2019-05-22T05:15:15.756Z,57.08
2019-05-22T05:16:17.966Z,57.09
2019-05-22T05:17:20.557Z,57.18
2019-05-22T05:18:22.769Z,57.11
2019-05-22T05:19:25.450Z,57.15
2019-05-22T05:20:27.720Z,57.17
2019-05-22T05:21:30.302Z,57.33
2019-05-22T05:22:32.502Z,57.31
2019-05-22T05:23:35.073Z,57.39
2019-05-22T05:24:37.314Z,57.28
2019-05-22T05:25:40.096Z,57.24
2019-05-22T05:26:43.508Z,57.39
2019-05-22T05:27:46.791Z,57.41
2019-05-22T05:28:48.993Z,57.49
2019-05-22T05:29:51.558Z,57.36
2019-05-22T05:30:54.874Z,57.43
2019-05-22T05:31:58.275Z,57.37
2019-05-22T05:33:02.186Z,57.44
2019-05-22T05:34:05.972Z,57.27
2019-05-22T05:35:09.290Z,57.25
2019-05-22T05:36:12.380Z,57.36
2019-05-22T05:37:16.184Z,57.29
2019-05-22T05:38:19.061Z,57.38
2019-05-22T05:39:21.318Z,57.45
2019-05-22T05:40:24.496Z,57.55
2019-05-22T05:41:26.707Z,57.60
2019-05-22T05:42:29.292Z,57.59
2019-05-22T05:43:31.721Z,57.43
2019-05-22T05:44:34.310Z,57.54
2019-05-22T05:45:36.661Z,57.45
2019-05-22T05:46:39.222Z,57.42
2019-05-22T05:47:43.213Z,57.52
2019-05-22T05:48:45.830Z,57.26
2019-05-22T05:49:49.239Z,57.54
2019-05-22T05:50:51.818Z,57.30
2019-05-22T05:51:55.834Z,57.32
2019-05-22T05:52:58.747Z,57.55
2019-05-22T05:54:03.939Z,57.44
2019-05-22T05:55:06.538Z,57.43
2019-05-22T05:56:08.760Z,57.32
2019-05-22T05:57:11.624Z,57.54
2019-05-22T05:58:15.414Z,57.40
2019-05-22T05:59:18.182Z,57.47
2019-05-22T06:00:22.492Z,57.45
2019-05-22T06:01:30.814Z,57.37
2019-05-22T06:02:33.169Z,57.40
2019-05-22T06:03:36.301Z,57.40
2019-05-22T06:04:38.599Z,57.33
2019-05-22T06:05:41.213Z,57.33
2019-05-22T06:06:43.414Z,57.33
2019-05-22T06:07:46.090Z,57.39
2019-05-22T06:08:48.462Z,57.45
2019-05-22T06:09:51.065Z,57.49
2019-05-22T06:10:53.778Z,57.44
2019-05-22T06:11:57.316Z,57.40
2019-05-22T06:13:00.414Z,57.43
2019-05-22T06:14:03.671Z,57.40
2019-05-22T06:15:06.310Z,57.43
2019-05-22T06:16:09.475Z,57.41
2019-05-22T06:17:12.279Z,57.41
2019-05-22T06:18:14.853Z,57.40
2019-05-22T06:19:17.305Z,57.44
2019-05-22T06:20:20.628Z,57.36
2019-05-22T06:21:22.870Z,57.39
2019-05-22T06:22:25.746Z,57.39
2019-05-22T06:23:28.987Z,57.35
2019-05-22T06:24:32.912Z,57.37
2019-05-22T06:25:35.135Z,57.35
2019-05-22T06:26:37.705Z,57.39
2019-05-22T06:27:44.514Z,57.39
2019-05-22T06:28:47.287Z,57.33
2019-05-22T06:29:49.551Z,57.40
2019-05-22T06:30:52.501Z,57.33
2019-05-22T06:31:54.713Z,57.38
2019-05-22T06:32:58.025Z,57.37
2019-05-22T06:34:00.352Z,57.33
2019-05-22T06:35:03.827Z,57.39
2019-05-22T06:36:07.461Z,57.41
2019-05-22T06:37:10.853Z,57.35
2019-05-22T06:38:13.057Z,57.37
2019-05-22T06:39:16.499Z,57.36
2019-05-22T06:40:19.821Z,57.36
2019-05-22T06:41:24.876Z,57.36
2019-05-22T06:42:27.785Z,57.33
2019-05-22T06:43:30.714Z,57.39
2019-05-22T06:44:36.913Z,57.39
2019-05-22T06:45:39.544Z,57.34
2019-05-22T06:46:41.796Z,57.32
2019-05-22T06:47:44.365Z,57.35
2019-05-22T06:48:46.564Z,57.31
2019-05-22T06:49:49.560Z,57.31
2019-05-22T06:50:52.030Z,57.22
2019-05-22T06:51:54.787Z,57.19
2019-05-22T06:53:09.526Z,57.27
2019-05-22T06:54:01.609Z,57.15
2019-05-22T06:55:04.537Z,57.17
2019-05-22T06:56:07.138Z,57.21
2019-05-22T06:57:40.684Z,57.23
2019-05-22T06:58:42.890Z,57.22
2019-05-22T06:59:47.182Z,57.19
2019-05-22T07:00:49.421Z,57.24
2019-05-22T07:02:00.340Z,57.31
2019-05-22T07:02:56.368Z,57.28
2019-05-22T07:03:58.976Z,57.32
2019-05-22T07:05:01.213Z,57.29
2019-05-22T07:06:04.380Z,57.35
2019-05-22T07:07:11.326Z,57.25
2019-05-22T07:08:11.662Z,57.35
2019-05-22T07:09:13.873Z,57.36
2019-05-22T07:10:16.960Z,57.37
2019-05-22T07:11:19.303Z,57.39
2019-05-22T07:12:24.566Z,57.40
2019-05-22T07:13:27.678Z,57.43
2019-05-22T07:14:30.654Z,57.51
2019-05-22T07:15:34.171Z,57.49
2019-05-22T07:16:36.747Z,57.49
2019-05-22T07:17:39.891Z,57.50
2019-05-22T07:18:42.825Z,57.51
2019-05-22T07:19:45.828Z,57.49
2019-05-22T07:20:49.027Z,57.49
2019-05-22T07:21:52.423Z,57.48
2019-05-22T07:22:55.038Z,57.46
2019-05-22T07:23:57.239Z,57.53
2019-05-22T07:24:59.819Z,57.52
2019-05-22T07:26:04.230Z,57.50
2019-05-22T07:27:08.376Z,57.56
2019-05-22T07:28:11.404Z,57.54
2019-05-22T07:29:14.364Z,57.52
2019-05-22T07:30:16.758Z,57.50
2019-05-22T07:31:19.343Z,57.51
2019-05-22T07:32:21.562Z,57.51
2019-05-22T07:33:25.412Z,57.54
2019-05-22T07:34:27.605Z,57.54
2019-05-22T07:35:49.773Z,57.54
2019-05-22T07:36:34.127Z,57.55
2019-05-22T07:37:37.705Z,57.52
2019-05-22T07:38:40.310Z,57.51
2019-05-22T07:39:42.897Z,57.49
2019-05-22T07:40:49.655Z,57.50
2019-05-22T07:41:49.379Z,57.53
2019-05-22T07:42:51.611Z,57.52
2019-05-22T07:43:54.174Z,57.53
2019-05-22T07:44:56.384Z,57.47
2019-05-22T07:45:59.986Z,57.45
2019-05-22T07:47:02.186Z,57.46
2019-05-22T07:48:05.061Z,57.50
2019-05-22T07:49:07.454Z,57.43
2019-05-22T07:50:10.032Z,57.44
2019-05-22T07:51:12.642Z,57.40
2019-05-22T07:52:15.259Z,57.41
2019-05-22T07:53:17.484Z,57.41
2019-05-22T07:54:20.047Z,57.41
2019-05-22T07:55:22.626Z,57.42
2019-05-22T07:56:25.519Z,57.44
2019-05-22T07:57:27.920Z,57.42
2019-05-22T07:58:31.534Z,57.43
2019-05-22T07:59:33.728Z,57.40
2019-05-22T08:00:36.716Z,57.40
2019-05-22T08:01:39.122Z,57.42
2019-05-22T08:02:41.772Z,57.43
2019-05-22T08:03:44.417Z,57.43
2019-05-22T08:04:46.983Z,57.41
2019-05-22T08:05:49.938Z,57.40
2019-05-22T08:06:52.815Z,57.35
2019-05-22T08:07:55.724Z,57.39
2019-05-22T08:09:00.830Z,57.42
2019-05-22T08:10:03.341Z,57.42
2019-05-22T08:11:06.830Z,57.42
2019-05-22T08:12:10.635Z,57.39
2019-05-22T08:13:13.228Z,57.40
2019-05-22T08:14:15.439Z,57.39
2019-05-22T08:15:18.449Z,57.40
2019-05-22T08:16:21.049Z,57.43
2019-05-22T08:17:23.656Z,57.40
2019-05-22T08:18:25.990Z,57.38
2019-05-22T08:19:28.569Z,57.39
2019-05-22T08:20:30.798Z,57.40
2019-05-22T08:21:33.472Z,57.39
2019-05-22T08:22:37.311Z,57.38
2019-05-22T08:23:40.247Z,57.35
2019-05-22T08:24:42.813Z,57.36
2019-05-22T08:25:45.367Z,57.35
2019-05-22T08:26:54.413Z,57.32
2019-05-22T08:27:51.808Z,57.27
2019-05-22T08:28:54.068Z,57.32
2019-05-22T08:29:57.133Z,57.24
2019-05-22T08:30:59.420Z,57.26
2019-05-22T08:32:02.015Z,57.35
2019-05-22T08:33:05.012Z,57.31
2019-05-22T08:34:08.413Z,57.27
2019-05-22T08:35:11.843Z,57.36
2019-05-22T08:36:16.140Z,57.26
2019-05-22T08:37:18.721Z,57.29
2019-05-22T08:38:21.404Z,57.30
2019-05-22T08:39:23.636Z,57.28
2019-05-22T08:40:26.623Z,57.25
2019-05-22T08:41:30.369Z,57.31
2019-05-22T08:42:35.471Z,57.28
2019-05-22T08:44:03.449Z,57.28
2019-05-22T08:44:41.855Z,57.21
2019-05-22T08:45:44.052Z,57.22
2019-05-22T08:46:46.737Z,57.26
2019-05-22T08:47:49.043Z,57.28
2019-05-22T08:48:51.747Z,57.29
2019-05-22T08:49:54.036Z,57.27
2019-05-22T08:50:57.528Z,57.27
2019-05-22T08:51:59.768Z,57.24
2019-05-22T08:53:02.368Z,57.22
2019-05-22T08:54:05.992Z,57.29
2019-05-22T08:55:09.275Z,57.27
2019-05-22T08:56:11.497Z,57.28
2019-05-22T08:57:14.185Z,57.33
2019-05-22T08:58:16.438Z,57.32
2019-05-22T08:59:20.353Z,57.30
2019-05-22T09:00:24.161Z,57.26
2019-05-22T09:01:26.768Z,57.28
2019-05-22T09:02:28.976Z,57.24
2019-05-22T09:03:31.831Z,57.26
2019-05-22T09:04:34.192Z,57.24
2019-05-22T09:05:36.972Z,57.22
2019-05-22T09:06:39.174Z,57.21
2019-05-22T09:07:41.788Z,57.21
2019-05-22T09:08:43.989Z,57.18
2019-05-22T09:09:46.569Z,57.20
2019-05-22T09:10:49.360Z,57.18
2019-05-22T09:11:51.968Z,57.17
2019-05-22T09:12:55.137Z,57.20
2019-05-22T09:13:57.622Z,57.20
2019-05-22T09:14:59.755Z,57.20
2019-05-22T09:16:02.341Z,57.21
2019-05-22T09:17:06.129Z,57.23
2019-05-22T09:18:08.766Z,57.18
2019-05-22T09:19:11.274Z,57.22
2019-05-22T09:20:13.966Z,57.18
2019-05-22T09:21:16.711Z,57.19
2019-05-22T09:22:19.659Z,57.15
2019-05-22T09:23:21.899Z,57.21
2019-05-22T09:24:26.550Z,57.11
2019-05-22T09:25:29.012Z,57.17
2019-05-22T09:26:31.612Z,57.16
2019-05-22T09:27:34.215Z,57.18
2019-05-22T09:28:37.281Z,57.17
2019-05-22T09:29:39.483Z,57.18
2019-05-22T09:30:42.088Z,57.18
2019-05-22T09:31:44.535Z,57.20
2019-05-22T09:32:47.719Z,57.15
2019-05-22T09:33:50.027Z,57.20
2019-05-22T09:34:52.664Z,57.17
2019-05-22T09:35:56.016Z,57.16
2019-05-22T09:36:58.666Z,57.13
2019-05-22T09:38:00.897Z,57.17
2019-05-22T09:39:03.980Z,57.20
2019-05-22T09:40:06.180Z,57.18
2019-05-22T09:41:09.735Z,57.20
2019-05-22T09:42:11.917Z,57.19
2019-05-22T09:43:14.559Z,57.19
2019-05-22T09:44:16.755Z,57.19
2019-05-22T09:45:19.327Z,57.16
2019-05-22T09:46:22.882Z,57.19
2019-05-22T09:47:25.727Z,57.15
2019-05-22T09:48:29.611Z,57.12
2019-05-22T09:49:32.950Z,57.10
2019-05-22T09:50:35.757Z,57.05
2019-05-22T09:51:38.341Z,57.12
2019-05-22T09:52:56.425Z,57.11
2019-05-22T09:53:45.182Z,57.06
2019-05-22T09:54:47.398Z,57.06
2019-05-22T09:55:50.269Z,57.08
2019-05-22T09:56:52.501Z,57.05
2019-05-22T09:57:55.172Z,57.08
2019-05-22T09:58:57.601Z,57.08
2019-05-22T10:00:00.177Z,57.14
2019-05-22T10:01:02.569Z,57.17
2019-05-22T10:02:05.795Z,57.21
2019-05-22T10:03:08.728Z,57.28
2019-05-22T10:04:11.740Z,57.26
2019-05-22T10:05:14.350Z,57.33
2019-05-22T10:06:16.898Z,57.28
2019-05-22T10:07:19.281Z,57.27
2019-05-22T10:08:22.255Z,57.26
2019-05-22T10:09:25.736Z,57.26
2019-05-22T10:10:28.334Z,57.25
2019-05-22T10:11:30.635Z,57.25
2019-05-22T10:12:33.510Z,57.24
2019-05-22T10:13:35.931Z,57.25
2019-05-22T10:14:39.590Z,57.22
2019-05-22T10:15:41.827Z,57.22
2019-05-22T10:16:44.419Z,57.18
2019-05-22T10:17:46.718Z,57.18
2019-05-22T10:18:53.115Z,57.17
2019-05-22T10:19:53.960Z,57.15
2019-05-22T10:20:56.952Z,57.10
2019-05-22T10:21:59.172Z,57.07
2019-05-22T10:23:14.974Z,57.10
2019-05-22T10:24:06.774Z,57.12
2019-05-22T10:25:15.432Z,57.15
2019-05-22T10:26:13.618Z,57.14
2019-05-22T10:27:16.518Z,57.15
2019-05-22T10:28:19.118Z,57.15
2019-05-22T10:29:21.732Z,57.14
2019-05-22T10:30:24.613Z,57.12
2019-05-22T10:31:27.494Z,57.09
2019-05-22T10:32:32.110Z,57.12
2019-05-22T10:33:33.925Z,57.13
2019-05-22T10:34:36.163Z,57.13
2019-05-22T10:35:39.940Z,57.15
2019-05-22T10:36:43.238Z,57.15
2019-05-22T10:37:46.003Z,57.16
2019-05-22T10:38:48.224Z,57.13
2019-05-22T10:39:50.859Z,57.14
2019-05-22T10:40:53.053Z,57.16
2019-05-22T10:41:55.626Z,57.31
2019-05-22T10:42:57.826Z,57.25
2019-05-22T10:44:00.442Z,57.24
2019-05-22T10:45:02.650Z,57.25
2019-05-22T10:46:05.752Z,57.25
2019-05-22T10:47:07.943Z,57.25
2019-05-22T10:48:10.529Z,57.23
2019-05-22T10:49:12.728Z,57.26
2019-05-22T10:50:15.331Z,57.24
2019-05-22T10:51:17.548Z,57.22
2019-05-22T10:52:20.122Z,57.25
2019-05-22T10:53:33.039Z,57.24
2019-05-22T10:54:26.573Z,57.25
2019-05-22T10:55:29.718Z,57.24
2019-05-22T10:56:32.296Z,57.32
2019-05-22T10:57:34.767Z,57.27
2019-05-22T10:58:37.339Z,57.23
2019-05-22T10:59:39.566Z,57.18
2019-05-22T11:00:42.351Z,57.22
2019-05-22T11:01:44.763Z,57.09
2019-05-22T11:02:47.739Z,57.16
2019-05-22T11:03:49.955Z,57.11
2019-05-22T11:04:52.822Z,57.17
2019-05-22T11:06:06.427Z,57.14
2019-05-22T11:06:59.546Z,56.94
2019-05-22T11:08:01.754Z,56.42
2019-05-22T11:09:05.563Z,56.71
2019-05-22T11:10:08.586Z,55.78
2019-05-22T11:11:11.178Z,56.52
2019-05-22T11:12:14.048Z,56.70
2019-05-22T11:13:16.663Z,55.56
2019-05-22T11:14:19.475Z,55.73
2019-05-22T11:15:22.532Z,55.87
2019-05-22T11:16:25.147Z,56.03
2019-05-22T11:17:27.701Z,55.64
2019-05-22T11:18:29.887Z,56.15
2019-05-22T11:19:32.788Z,56.01
2019-05-22T11:20:36.089Z,55.98
2019-05-22T11:21:38.682Z,55.60
2019-05-22T11:22:41.072Z,55.88
2019-05-22T11:23:52.158Z,55.86
2019-05-22T11:24:47.508Z,55.79
2019-05-22T11:25:50.093Z,55.80
2019-05-22T11:26:52.489Z,56.06
2019-05-22T11:27:55.675Z,55.57
2019-05-22T11:28:58.006Z,55.88
2019-05-22T11:30:00.622Z,55.83
2019-05-22T11:31:04.459Z,55.89
2019-05-22T11:32:07.488Z,55.45
2019-05-22T11:33:10.126Z,55.65
2019-05-22T11:34:12.726Z,55.38
2019-05-22T11:35:15.382Z,54.80
2019-05-22T11:36:18.483Z,55.50
2019-05-22T11:37:20.912Z,54.72
2019-05-22T11:38:23.492Z,55.40
2019-05-22T11:39:38.905Z,55.36
2019-05-22T11:40:31.274Z,55.15
2019-05-22T11:41:33.633Z,55.38
2019-05-22T11:42:36.533Z,55.69
2019-05-22T11:43:39.166Z,55.29
2019-05-22T11:44:41.985Z,55.07
2019-05-22T11:45:45.453Z,54.77
2019-05-22T11:46:48.452Z,54.90
2019-05-22T11:47:50.638Z,54.31
2019-05-22T11:48:53.410Z,54.70
2019-05-22T11:49:55.638Z,55.14
2019-05-22T11:51:00.935Z,55.03
2019-05-22T11:52:02.083Z,55.16
2019-05-22T11:53:04.616Z,54.85
2019-05-22T11:54:09.552Z,55.08
2019-05-22T11:55:11.385Z,55.05
2019-05-22T11:56:13.582Z,55.25
2019-05-22T11:57:16.382Z,55.13
2019-05-22T11:58:18.586Z,54.82
2019-05-22T11:59:21.987Z,54.52
2019-05-22T12:00:24.450Z,55.10
2019-05-22T12:01:26.967Z,55.05
2019-05-22T12:02:29.167Z,54.80
2019-05-22T12:03:31.744Z,54.88
2019-05-22T12:04:47.379Z,55.19
2019-05-22T12:05:38.655Z,54.89
2019-05-22T12:06:40.869Z,55.01
2019-05-22T12:07:43.951Z,54.61
2019-05-22T12:08:46.253Z,54.84
2019-05-22T12:09:48.940Z,54.51
2019-05-22T12:10:51.212Z,54.62
2019-05-22T12:11:53.805Z,54.66
2019-05-22T12:12:56.217Z,54.88
2019-05-22T12:13:58.992Z,54.39
2019-05-22T12:15:01.226Z,54.93
2019-05-22T12:16:04.218Z,54.67
2019-05-22T12:17:06.817Z,54.99
2019-05-22T12:18:10.802Z,54.85
2019-05-22T12:19:13.195Z,54.91
2019-05-22T12:20:16.805Z,54.80
2019-05-22T12:21:19.018Z,54.75
2019-05-22T12:22:21.629Z,54.95
2019-05-22T12:23:24.438Z,54.67
2019-05-22T12:24:35.515Z,54.84
2019-05-22T12:25:31.201Z,54.82
2019-05-22T12:26:34.079Z,54.98
2019-05-22T12:27:36.284Z,54.79
2019-05-22T12:28:38.858Z,55.02
2019-05-22T12:29:41.263Z,54.95
2019-05-22T12:30:44.269Z,54.85
2019-05-22T12:31:46.704Z,54.62
2019-05-22T12:32:49.729Z,54.66
2019-05-22T12:33:51.934Z,54.79
2019-05-22T12:34:54.922Z,54.40
2019-05-22T12:35:57.363Z,54.41
2019-05-22T12:37:00.040Z,54.67
2019-05-22T12:38:02.254Z,54.73
2019-05-22T12:39:06.049Z,54.85
2019-05-22T12:40:08.568Z,54.80
2019-05-22T12:41:11.385Z,54.61
2019-05-22T12:42:14.125Z,54.61
2019-05-22T12:43:17.289Z,54.71
2019-05-22T12:44:19.501Z,54.69
2019-05-22T12:45:22.103Z,54.74
2019-05-22T12:46:25.162Z,54.72
2019-05-22T12:47:28.330Z,54.52
2019-05-22T12:48:30.949Z,54.86
2019-05-22T12:49:33.524Z,54.73
2019-05-22T12:50:36.863Z,53.98
2019-05-22T12:51:39.691Z,54.09
2019-05-22T12:52:42.382Z,54.49
2019-05-22T12:53:45.270Z,54.43
2019-05-22T12:54:52.458Z,54.74
2019-05-22T12:55:51.987Z,54.57
2019-05-22T12:56:54.288Z,54.10
2019-05-22T12:57:56.891Z,54.44
2019-05-22T12:58:59.100Z,54.65
2019-05-22T13:00:03.091Z,54.45
2019-05-22T13:01:06.123Z,54.67
2019-05-22T13:02:10.436Z,54.21
2019-05-22T13:03:12.661Z,54.05
2019-05-22T13:04:15.933Z,54.50
2019-05-22T13:05:19.720Z,54.41
2019-05-22T13:06:22.440Z,54.45
2019-05-22T13:07:24.736Z,54.36
2019-05-22T13:08:27.530Z,53.98
2019-05-22T13:09:30.008Z,54.15
2019-05-22T13:10:32.591Z,53.91
2019-05-22T13:11:35.058Z,54.26
2019-05-22T13:12:37.954Z,53.91
2019-05-22T13:13:40.578Z,53.36
2019-05-22T13:14:43.402Z,54.18
2019-05-22T13:15:46.015Z,54.34
2019-05-22T13:16:49.412Z,54.17
2019-05-22T13:17:51.640Z,54.17
2019-05-22T13:18:54.259Z,54.16
2019-05-22T13:19:56.504Z,54.26
2019-05-22T13:20:59.164Z,54.21
2019-05-22T13:22:02.639Z,54.02
2019-05-22T13:23:06.514Z,54.28
2019-05-22T13:24:08.753Z,54.30
2019-05-22T13:25:11.340Z,53.98
2019-05-22T13:26:14.122Z,54.17
2019-05-22T13:27:18.113Z,54.34
2019-05-22T13:28:20.710Z,54.49
2019-05-22T13:29:24.263Z,54.57
2019-05-22T13:30:28.691Z,54.22
2019-05-22T13:31:32.828Z,53.99
2019-05-22T13:32:35.422Z,54.50
2019-05-22T13:33:38.822Z,54.46
2019-05-22T13:34:41.240Z,54.40
2019-05-22T13:35:43.867Z,54.04
2019-05-22T13:36:46.284Z,53.54